Woodville, Idaho
Current Conditions -  °F | °C
As of 3:53 PM on Friday 19 Dec 2014 (Local Time) from KIDA Reporting Station
Overcast Overcast  
Wind Chill: 33°   Ceiling: 4100
Heat Index: 39°   Visibility: 10mi
Dew Point: 29°   Wind: 9mph
Humidity: 67%   Direction: 190°S
Pressure: 30.06"   Gusts: NA
Location:  43.2015°N, 111.522°W
Report Text: KIDA 192253Z 19008KT 10SM OVC041 04/M02 A3006 RMK AO2 SLP195 T00391017
Loading
Personal Weather Stations






























Interactive Weather Map New forecast layout! Learn more

10-Day Weather Forecast

Advertisements
Track Severe Weather on mobile